createdAt,value
2024-04-07T16:29:36.211Z,95819.69
2024-04-07T16:32:22.927Z,95818.13
2024-04-07T16:35:10.051Z,95816.56
2024-04-07T16:37:56.465Z,95822.09
2024-04-07T16:40:42.798Z,95817.34
2024-04-07T16:43:29.585Z,95830.03
2024-04-07T16:46:17.377Z,95833.19
2024-04-07T16:49:08.394Z,95834.38
2024-04-07T16:51:54.707Z,95837.16
2024-04-07T16:54:41.917Z,95824.50
2024-04-07T16:57:28.804Z,95828.44
2024-04-07T17:00:17.174Z,95839.88
2024-04-07T17:03:04.436Z,95838.25
2024-04-07T17:05:51.088Z,95832.34
2024-04-07T17:08:42.419Z,95863.91
2024-04-07T17:11:33.696Z,95859.97
2024-04-07T17:14:21.153Z,95857.56
2024-04-07T17:17:07.532Z,95855.16
2024-04-07T17:19:53.654Z,95859.09
2024-04-07T17:22:40.045Z,95856.72
2024-04-07T17:25:26.283Z,95867.72
2024-04-07T17:28:12.607Z,95859.38
2024-04-07T17:30:58.919Z,95862.13
2024-04-07T17:33:45.204Z,95869.63
2024-04-07T17:36:32.155Z,95883.41
2024-04-07T17:39:18.561Z,95882.59
2024-04-07T17:42:05.979Z,95877.03
2024-04-07T17:44:52.611Z,95897.53
2024-04-07T17:47:38.926Z,95896.72
2024-04-07T17:50:25.448Z,95900.63
2024-04-07T17:53:12.970Z,95892.72
2024-04-07T17:55:58.933Z,95895.06
2024-04-07T17:58:45.585Z,95898.53
2024-04-07T18:01:31.764Z,95895.38
2024-04-07T18:04:18.183Z,95906.00
2024-04-07T18:07:05.327Z,95924.09
2024-04-07T18:09:52.270Z,95928.75
2024-04-07T18:12:38.651Z,95928.34
2024-04-07T18:15:25.134Z,95916.88
2024-04-07T18:18:11.525Z,95916.84
2024-04-07T18:20:57.910Z,95916.81
2024-04-07T18:23:44.199Z,95931.75
2024-04-07T18:26:31.072Z,95935.69
2024-04-07T18:29:17.860Z,95938.03
2024-04-07T18:32:04.841Z,95926.94
2024-04-07T18:34:51.086Z,95936.81
2024-04-07T18:37:37.374Z,95937.97
2024-04-07T18:40:26.441Z,95936.34
2024-04-07T18:43:12.858Z,95939.47
2024-04-07T18:45:59.658Z,95935.50
2024-04-07T18:48:46.384Z,95952.03
2024-04-07T18:51:32.769Z,95947.28
2024-04-07T18:54:19.163Z,95951.63
2024-04-07T18:57:05.688Z,95952.38
2024-04-07T18:59:53.973Z,95954.31
2024-04-07T19:02:45.654Z,95957.44
2024-04-07T19:05:32.038Z,95962.91
2024-04-07T19:08:19.351Z,95966.84
2024-04-07T19:11:06.912Z,95960.50
2024-04-07T19:13:54.069Z,95962.84
2024-04-07T19:16:40.523Z,95957.19
2024-04-07T19:19:26.791Z,95961.13
2024-04-07T19:22:13.133Z,95967.41
2024-04-07T19:24:59.652Z,95981.50
2024-04-07T19:27:46.132Z,95989.78
2024-04-07T19:30:32.806Z,95979.84
2024-04-07T19:33:19.490Z,95991.31
2024-04-07T19:36:06.600Z,95989.28
2024-04-07T19:38:53.341Z,95989.22
2024-04-07T19:41:40.068Z,95986.03
2024-04-07T19:44:28.602Z,95989.09
2024-04-07T19:47:14.918Z,95994.59
2024-04-07T19:50:01.380Z,95994.53
2024-04-07T19:52:52.674Z,95995.31
2024-04-07T19:55:39.059Z,95984.97
2024-04-07T19:58:25.360Z,95981.41
2024-04-07T20:01:11.898Z,95988.06
2024-04-07T20:03:58.293Z,95995.81
2024-04-07T20:06:44.949Z,95998.88
2024-04-07T20:09:35.585Z,96001.22
2024-04-07T20:12:23.346Z,95997.91
2024-04-07T20:15:11.730Z,96009.28
2024-04-07T20:17:58.262Z,96007.22
2024-04-07T20:20:44.956Z,96012.72
2024-04-07T20:23:31.303Z,96013.03
2024-04-07T20:26:17.804Z,96017.28
2024-04-07T20:29:04.174Z,96028.19
2024-04-07T20:31:50.709Z,96027.69
2024-04-07T20:34:38.693Z,96024.03
2024-04-07T20:37:24.855Z,96016.06
2024-04-07T20:40:12.062Z,96017.97
2024-04-07T20:42:59.949Z,96018.28
2024-04-07T20:45:47.165Z,96022.53
2024-04-07T20:48:34.194Z,96040.28
2024-04-07T20:51:22.127Z,96031.56
2024-04-07T20:54:10.854Z,96028.22
2024-04-07T20:56:57.303Z,96028.88
2024-04-07T20:59:43.850Z,96036.25
2024-04-07T21:02:30.666Z,96033.81
2024-04-07T21:05:17.063Z,96038.78
2024-04-07T21:08:03.553Z,96046.56
2024-04-07T21:10:50.056Z,96052.78
2024-04-07T21:13:36.585Z,96046.41
2024-04-07T21:16:23.254Z,96051.06
2024-04-07T21:19:10.415Z,96039.19
2024-04-07T21:21:57.385Z,96034.44
2024-04-07T21:24:43.729Z,96042.69
2024-04-07T21:27:30.322Z,96045.56
2024-04-07T21:30:16.504Z,96050.63
2024-04-07T21:33:03.137Z,96052.03
2024-04-07T21:35:49.991Z,96061.31
2024-04-07T21:38:36.651Z,96049.44
2024-04-07T21:41:23.416Z,96057.50
2024-04-07T21:44:10.916Z,96060.94
2024-04-07T21:46:57.466Z,96064.34
2024-04-07T21:49:43.884Z,96070.19
2024-04-07T21:52:30.280Z,96075.53
2024-04-07T21:55:17.883Z,96073.50
2024-04-07T21:58:05.459Z,96066.31
2024-04-07T22:00:52.006Z,96072.91
2024-04-07T22:03:38.338Z,96079.00
2024-04-07T22:06:24.792Z,96092.22
2024-04-07T22:09:15.632Z,96091.16
2024-04-07T22:12:02.203Z,96089.56
2024-04-07T22:14:48.539Z,96073.63
2024-04-07T22:17:35.962Z,96079.81
2024-04-07T22:20:24.116Z,96090.81
2024-04-07T22:23:11.750Z,96093.34
2024-04-07T22:25:58.254Z,96090.50
2024-04-07T22:28:45.806Z,96098.13
2024-04-07T22:31:32.060Z,96094.84
2024-04-07T22:34:18.246Z,96093.78
2024-04-07T22:37:04.744Z,96099.31
2024-04-07T22:39:51.617Z,96100.00
2024-04-07T22:42:38.088Z,96093.00
2024-04-07T22:45:24.576Z,96093.78
2024-04-07T22:48:12.035Z,96099.97
2024-04-07T22:50:58.180Z,96102.63
2024-04-07T22:53:44.788Z,96102.16
2024-04-07T22:56:31.045Z,96106.75
2024-04-07T22:59:17.545Z,96105.88
2024-04-07T23:02:05.646Z,96103.34
2024-04-07T23:04:53.165Z,96093.06
2024-04-07T23:07:39.510Z,96092.41
2024-04-07T23:10:25.955Z,96094.16
2024-04-07T23:13:12.360Z,96092.22
2024-04-07T23:16:09.357Z,96085.44
2024-04-07T23:18:55.484Z,96076.06
2024-04-07T23:21:41.836Z,96076.31
2024-04-07T23:24:28.911Z,96076.19
2024-04-07T23:27:14.976Z,96078.84
2024-04-07T23:30:04.734Z,96088.19
2024-04-07T23:32:51.086Z,96081.78
2024-04-07T23:35:37.635Z,96078.59
2024-04-07T23:38:29.585Z,96081.78
2024-04-07T23:41:19.051Z,96071.31
2024-04-07T23:44:05.644Z,96083.06
2024-04-07T23:46:52.755Z,96085.44
2024-04-07T23:49:39.634Z,96090.00
2024-04-07T23:52:25.755Z,96086.91
2024-04-07T23:55:12.295Z,96082.94
2024-04-07T23:57:59.796Z,96083.28
